Time;durP1;ratioP1;P1;durP2;ratioP2;P2;SDS_P1;SDS_P2;PMS_P1;PMS_P2;Temp;Humidity;BMP_temperature;BMP_pressure;BME280_temperature;BME280_humidity;BME280_pressure;Samples;Min_cycle;Max_cycle;Signal;HPM_P1;HPM_P2
2022/06/29 00:00:15;;;;;;;3.90;0.68;;;;;;;14.90;48.96;101893.22;4991681;28;20036;-78
2022/06/29 00:02:43;;;;;;;4.35;0.55;;;;;;;14.87;49.22;101887.22;4990968;28;20132;-78
2022/06/29 00:05:12;;;;;;;0.57;0.30;;;;;;;14.84;49.32;101898.72;4995962;28;20112;-77
2022/06/29 00:07:38;;;;;;;4.50;0.55;;;;;;;14.73;49.65;101886.00;4991573;28;20037;-77
2022/06/29 00:10:04;;;;;;;1.55;0.50;;;;;;;14.76;49.29;101880.63;4995610;28;20037;-77
2022/06/29 00:12:30;;;;;;;2.90;0.30;;;;;;;14.76;49.28;101880.63;4996956;28;20022;-76
2022/06/29 00:14:58;;;;;;;4.30;1.17;;;;;;;14.69;49.53;101881.78;5008161;28;20028;-78
2022/06/29 00:17:24;;;;;;;1.20;0.43;;;;;;;14.70;49.31;101883.53;4990886;28;20071;-77
2022/06/29 00:19:58;;;;;;;2.15;0.77;;;;;;;14.62;49.60;101887.38;5007132;28;20380;-76
2022/06/29 00:23:41;;;;;;;1.80;0.45;;;;;;;14.65;49.34;101880.19;5005197;28;20044;-77
2022/06/29 00:27:43;;;;;;;1.33;0.22;;;;;;;14.62;49.56;101877.72;4997395;28;20503;-75
2022/06/29 00:30:11;;;;;;;2.55;0.93;;;;;;;14.55;49.50;101871.00;4993880;28;20070;-79
2022/06/29 00:35:46;;;;;;;0.95;0.57;;;;;;;14.47;49.55;101868.66;5012164;28;20048;-80
2022/06/29 00:38:16;;;;;;;2.80;0.40;;;;;;;14.49;49.44;101872.09;5020972;28;20046;-76
2022/06/29 00:40:42;;;;;;;6.03;0.57;;;;;;;14.45;49.55;101870.50;5024351;28;20108;-78
2022/06/29 00:44:10;;;;;;;2.30;0.40;;;;;;;14.40;49.45;101861.91;4964166;28;20042;-77
2022/06/29 00:46:47;;;;;;;1.13;0.55;;;;;;;14.38;49.77;101857.63;4983789;28;20081;-77
2022/06/29 00:49:31;;;;;;;2.33;0.40;;;;;;;14.27;49.97;101851.03;4993812;28;20042;-77
2022/06/29 00:52:11;;;;;;;2.25;0.93;;;;;;;14.18;50.27;101847.91;5008846;28;20054;-78
2022/06/29 00:56:01;;;;;;;3.60;0.95;;;;;;;14.12;50.22;101839.38;4966317;28;20061;-78
2022/06/29 01:03:16;;;;;;;4.15;0.75;;;;;;;14.04;50.41;101837.94;4884700;29;20480;-79
2022/06/29 01:05:49;;;;;;;2.78;0.77;;;;;;;13.95;50.67;101831.28;4866900;29;20151;-79
2022/06/29 01:08:15;;;;;;;4.93;1.02;;;;;;;13.90;50.70;101831.47;4897719;28;20042;-77
2022/06/29 01:15:56;;;;;;;4.10;1.00;;;;;;;13.89;50.51;101834.13;5010356;28;20036;-79
2022/06/29 01:18:28;;;;;;;2.63;0.85;;;;;;;13.94;50.46;101832.19;5009591;28;20057;-78
2022/06/29 01:22:14;;;;;;;2.03;0.82;;;;;;;13.90;50.33;101820.09;5013902;28;20142;-77
2022/06/29 01:24:47;;;;;;;3.13;0.82;;;;;;;13.96;50.04;101822.47;5024310;28;20053;-78
2022/06/29 01:28:34;;;;;;;1.00;0.77;;;;;;;13.92;50.21;101823.53;4954364;28;20042;-79
2022/06/29 01:31:59;;;;;;;1.27;0.88;;;;;;;14.00;49.88;101816.19;4933817;28;20324;-78
2022/06/29 01:35:13;;;;;;;3.92;0.75;;;;;;;14.03;49.48;101815.19;4912763;29;20051;-79
2022/06/29 01:38:47;;;;;;;1.95;1.15;;;;;;;13.99;49.86;101813.63;4919240;28;20070;-78
2022/06/29 01:41:58;;;;;;;7.95;1.63;;;;;;;13.99;49.79;101813.63;4987384;28;20053;-74
2022/06/29 01:44:50;;;;;;;1.30;0.73;;;;;;;14.01;49.65;101806.50;4926918;28;20047;-79
2022/06/29 01:47:16;;;;;;;0.90;0.70;;;;;;;14.01;49.55;101809.13;4955276;28;20069;-77
2022/06/29 01:49:42;;;;;;;2.22;0.80;;;;;;;13.96;49.59;101809.31;4986139;28;20277;-78
2022/06/29 01:52:07;;;;;;;3.70;1.00;;;;;;;13.91;49.51;101801.63;4966823;28;20038;-77
2022/06/29 01:54:33;;;;;;;3.10;1.23;;;;;;;13.96;49.59;101808.47;4973040;28;20073;-78
2022/06/29 01:56:59;;;;;;;3.55;1.38;;;;;;;13.88;49.69;101806.16;4972202;28;20739;-76
2022/06/29 01:59:26;;;;;;;2.00;1.13;;;;;;;13.93;49.94;101807.69;5005113;28;20054;-77
2022/06/29 02:02:27;;;;;;;2.88;1.40;;;;;;;13.93;49.63;101802.44;4986579;28;20038;-78
2022/06/29 02:05:03;;;;;;;1.88;1.10;;;;;;;13.94;49.59;101801.53;5005766;28;20044;-77
2022/06/29 02:07:50;;;;;;;2.05;1.73;;;;;;;13.81;50.02;101797.66;4921620;28;20078;-79
2022/06/29 02:10:16;;;;;;;7.05;1.73;;;;;;;13.76;50.20;101790.88;4994745;28;20124;-78
2022/06/29 02:13:19;;;;;;;2.38;1.40;;;;;;;13.87;49.76;101788.66;5003170;28;20037;-77
2022/06/29 02:17:01;;;;;;;4.50;1.60;;;;;;;13.82;50.04;101788.84;4969189;28;20041;-78
2022/06/29 02:23:20;;;;;;;2.05;1.70;;;;;;;13.77;50.11;101782.94;5011311;28;20068;-78
2022/06/29 02:25:48;;;;;;;4.63;1.83;;;;;;;13.83;49.96;101781.81;5011701;28;20049;-78
2022/06/29 02:34:44;;;;;;;5.63;1.73;;;;;;;13.72;50.60;101782.25;4999782;28;20038;-76
2022/06/29 02:37:31;;;;;;;8.63;2.13;;;;;;;13.72;50.42;101774.38;4988599;28;20038;-76
2022/06/29 02:40:32;;;;;;;2.03;1.50;;;;;;;13.67;50.89;101776.31;4963242;28;20053;-77
2022/06/29 02:43:23;;;;;;;3.25;2.17;;;;;;;13.67;50.78;101776.31;4976377;28;20394;-77
2022/06/29 02:45:51;;;;;;;6.15;1.98;;;;;;;13.62;50.97;101775.63;4985913;28;20061;-77
2022/06/29 02:48:43;;;;;;;3.70;2.20;;;;;;;13.57;51.30;101782.84;4966312;28;20109;-78
2022/06/29 02:51:09;;;;;;;2.95;2.38;;;;;;;13.52;51.27;101783.84;4983989;28;20091;-78
2022/06/29 02:53:36;;;;;;;2.40;1.95;;;;;;;13.63;50.85;101774.72;4973077;28;20126;-78
2022/06/29 03:03:05;;;;;;;4.70;2.22;;;;;;;13.50;51.58;101764.66;4942907;28;20054;-78
2022/06/29 03:06:31;;;;;;;3.78;1.80;;;;;;;13.51;51.78;101766.34;4957269;28;20281;-76
2022/06/29 03:08:58;;;;;;;5.18;2.60;;;;;;;13.49;51.83;101756.81;4938951;28;20462;-77
2022/06/29 03:11:24;;;;;;;3.25;2.33;;;;;;;13.60;51.62;101767.81;4965834;28;20129;-77
2022/06/29 03:13:56;;;;;;;2.97;2.25;;;;;;;13.59;51.56;101762.63;4968410;28;20057;-77
2022/06/29 03:16:24;;;;;;;2.60;2.40;;;;;;;13.52;51.75;101751.47;4938030;28;20047;-76
2022/06/29 03:19:15;;;;;;;2.47;2.22;;;;;;;13.57;51.86;101753.97;4954733;28;20058;-77
2022/06/29 03:21:42;;;;;;;5.07;2.50;;;;;;;13.58;51.75;101748.63;5026552;28;20037;-77
2022/06/29 03:32:14;;;;;;;4.60;2.65;;;;;;;13.63;51.74;101748.44;4996364;28;20671;-77
2022/06/29 03:34:40;;;;;;;3.47;2.22;;;;;;;13.61;51.53;101747.69;4976996;28;20045;-77
2022/06/29 03:37:05;;;;;;;4.35;2.53;;;;;;;13.68;51.58;101742.09;4995251;28;20034;-79
2022/06/29 03:39:30;;;;;;;3.22;2.53;;;;;;;13.68;51.45;101742.09;4996535;28;20030;-78
2022/06/29 03:41:56;;;;;;;4.05;2.42;;;;;;;13.62;51.48;101737.09;4994331;28;20211;-79
2022/06/29 03:44:21;;;;;;;3.15;2.85;;;;;;;13.57;51.84;101744.31;4995770;28;20045;-79
2022/06/29 03:46:47;;;;;;;3.33;2.42;;;;;;;13.65;51.50;101741.34;4980487;28;20135;-77
2022/06/29 03:49:12;;;;;;;4.15;2.38;;;;;;;13.76;51.58;101741.78;4997913;28;20053;-82
2022/06/29 03:51:38;;;;;;;4.53;3.13;;;;;;;13.67;51.63;101740.41;4982921;28;20124;-79
2022/06/29 03:54:04;;;;;;;6.85;2.17;;;;;;;13.75;51.68;101741.88;4997312;28;20372;-78
2022/06/29 03:56:29;;;;;;;3.95;2.78;;;;;;;13.85;51.22;101738.81;4981237;28;20035;-78
2022/06/29 03:58:54;;;;;;;3.05;2.63;;;;;;;13.82;51.33;101738.94;4992868;28;20042;-78
2022/06/29 04:01:20;;;;;;;3.55;2.33;;;;;;;13.92;51.09;101744.69;4992524;28;20034;-79
2022/06/29 04:03:45;;;;;;;4.65;3.05;;;;;;;13.88;50.95;101738.69;4993797;28;20061;-77
2022/06/29 04:06:13;;;;;;;3.13;2.45;;;;;;;13.91;51.06;101730.66;4982599;28;20038;-77
2022/06/29 04:08:39;;;;;;;4.25;2.28;;;;;;;14.03;50.75;101736.34;4995670;28;20050;-77
2022/06/29 04:11:48;;;;;;;3.70;2.22;;;;;;;14.13;50.82;101724.53;4993339;28;20236;-80
2022/06/29 04:13:53;;;;;;;4.53;2.65;;;;;;;14.18;50.41;101729.59;4994967;28;20610;-78
2022/06/29 04:16:19;;;;;;;4.35;2.72;;;;;;;14.07;50.63;101733.53;4996393;28;20038;-78
2022/06/29 04:18:44;;;;;;;5.43;3.55;;;;;;;14.20;50.29;101733.88;4995302;28;20720;-78
2022/06/29 04:21:10;;;;;;;5.07;2.60;;;;;;;14.24;50.41;101729.34;4995910;28;20049;-78
2022/06/29 04:23:35;;;;;;;3.33;2.63;;;;;;;14.27;50.38;101730.06;4993350;28;20057;-76
2022/06/29 04:26:01;;;;;;;3.03;2.17;;;;;;;14.40;50.19;101729.56;4995373;28;20657;-79
2022/06/29 04:28:27;;;;;;;3.88;2.55;;;;;;;14.47;50.18;101734.50;4997857;28;20049;-79
2022/06/29 04:30:52;;;;;;;4.10;2.50;;;;;;;14.51;49.62;101732.63;4995343;28;20084;-78
2022/06/29 04:33:18;;;;;;;3.70;2.00;;;;;;;14.52;50.02;101731.69;4994703;28;20033;-78
2022/06/29 04:35:43;;;;;;;3.95;2.25;;;;;;;14.53;49.87;101720.25;5011610;28;20609;-79
2022/06/29 04:38:09;;;;;;;3.45;2.80;;;;;;;14.61;49.56;101726.03;4979180;28;20045;-79
2022/06/29 04:40:34;;;;;;;2.17;1.75;;;;;;;14.65;49.70;101724.97;4979532;28;20403;-79
2022/06/29 04:43:00;;;;;;;5.45;3.00;;;;;;;14.80;49.20;101727.88;4993553;28;20069;-76
2022/06/29 04:48:10;;;;;;;3.67;2.42;;;;;;;15.06;48.91;101719.66;5010063;28;20043;-77
2022/06/29 04:50:35;;;;;;;2.78;2.13;;;;;;;15.33;48.44;101721.97;4994993;28;20034;-76
2022/06/29 04:53:01;;;;;;;3.03;2.63;;;;;;;15.39;48.08;101724.28;4992931;28;20065;-80
2022/06/29 04:55:29;;;;;;;3.42;2.03;;;;;;;15.63;47.62;101718.81;4995417;28;20433;-76
2022/06/29 04:57:54;;;;;;;4.35;2.42;;;;;;;15.67;47.66;101715.09;4976253;28;20598;-78
2022/06/29 05:00:20;;;;;;;2.92;2.35;;;;;;;15.54;47.92;101715.66;4994518;28;20029;-77
2022/06/29 05:02:46;;;;;;;2.40;2.20;;;;;;;15.53;48.06;101713.97;4996271;28;20042;-76
2022/06/29 05:05:11;;;;;;;2.97;2.22;;;;;;;15.58;47.80;101716.38;4992647;28;20041;-77
2022/06/29 05:07:37;;;;;;;5.03;2.30;;;;;;;15.51;47.73;101715.81;5008907;28;20038;-76
2022/06/29 05:10:03;;;;;;;2.92;2.10;;;;;;;15.47;48.10;101711.63;4970864;28;20038;-79
2022/06/29 05:12:28;;;;;;;3.60;1.95;;;;;;;15.67;47.75;101712.47;5009716;28;20190;-78
2022/06/29 05:14:54;;;;;;;3.08;2.30;;;;;;;15.97;47.42;101707.44;4981024;28;20034;-77
2022/06/29 05:17:20;;;;;;;4.78;2.42;;;;;;;16.39;46.58;101712.38;4998453;28;20045;-77
2022/06/29 05:19:46;;;;;;;3.75;1.92;;;;;;;16.77;45.56;101703.41;4996119;28;20045;-77
2022/06/29 05:22:12;;;;;;;3.50;1.88;;;;;;;17.63;43.49;101694.28;4980169;28;20048;-77
2022/06/29 05:24:37;;;;;;;2.20;1.70;;;;;;;18.37;41.69;101700.59;4998322;28;20039;-76
2022/06/29 05:27:03;;;;;;;1.75;1.48;;;;;;;19.71;39.51;101695.72;4996004;28;20061;-80
2022/06/29 05:29:29;;;;;;;5.70;1.75;;;;;;;20.94;36.33;101689.16;4998363;28;20037;-79
2022/06/29 05:31:54;;;;;;;2.05;1.80;;;;;;;21.38;34.79;101685.09;5013731;28;20041;-78
2022/06/29 05:34:20;;;;;;;1.63;1.27;;;;;;;21.97;34.11;101686.94;4989755;28;20046;-78
2022/06/29 05:36:45;;;;;;;4.53;1.70;;;;;;;22.30;34.05;101688.00;5012778;28;20220;-81
2022/06/29 05:39:11;;;;;;;1.45;1.17;;;;;;;22.41;33.22;101685.38;4992583;28;20045;-78
2022/06/29 05:41:37;;;;;;;5.10;1.70;;;;;;;22.31;32.98;101687.03;4998723;28;20112;-78
2022/06/29 05:44:04;;;;;;;2.78;1.45;;;;;;;22.70;33.06;101696.41;5010661;28;20042;-77
2022/06/29 05:46:31;;;;;;;3.28;1.83;;;;;;;22.57;32.76;101682.34;4998710;28;20036;-78
2022/06/29 05:48:56;;;;;;;1.77;1.17;;;;;;;23.30;31.62;101686.31;5009706;28;20046;-78
2022/06/29 05:51:22;;;;;;;4.30;1.40;;;;;;;24.17;31.18;101686.19;4995327;28;20501;-79
2022/06/29 05:53:49;;;;;;;2.55;1.52;;;;;;;24.46;30.30;101674.84;5011479;28;20048;-77
2022/06/29 05:56:15;;;;;;;5.88;1.58;;;;;;;24.32;29.83;101675.13;4999145;28;20088;-77
2022/06/29 05:58:41;;;;;;;3.40;1.45;;;;;;;24.00;30.22;101679.59;4996166;28;20050;-78
2022/06/29 06:01:09;;;;;;;4.05;1.40;;;;;;;23.04;31.85;101679.56;4998757;28;20088;-78
2022/06/29 06:03:34;;;;;;;2.45;1.15;;;;;;;22.10;33.28;101679.75;4996899;28;20073;-79
2022/06/29 06:06:00;;;;;;;5.65;1.58;;;;;;;21.25;35.98;101684.28;4996294;28;20072;-78
2022/06/29 06:08:25;;;;;;;4.03;2.75;;;;;;;21.49;34.53;101687.84;4982316;28;20423;-78
2022/06/29 06:10:51;;;;;;;1.50;1.20;;;;;;;22.53;32.01;101688.88;4993906;28;20092;-76
2022/06/29 06:13:17;;;;;;;3.40;2.00;;;;;;;23.11;31.33;101680.75;4996052;28;20152;-78
2022/06/29 06:15:42;;;;;;;6.35;2.35;;;;;;;23.65;30.47;101681.69;4997771;28;20130;-80
2022/06/29 06:18:08;;;;;;;2.10;1.25;;;;;;;24.20;30.99;101677.88;4995093;28;20222;-79
2022/06/29 06:20:34;;;;;;;3.35;2.75;;;;;;;24.56;29.07;101683.72;4994724;28;20033;-77
2022/06/29 06:22:59;;;;;;;3.30;1.30;;;;;;;24.73;29.25;101678.75;4995830;28;20038;-78
2022/06/29 06:25:25;;;;;;;2.60;1.13;;;;;;;25.84;28.06;101670.47;4996894;28;20480;-78
2022/06/29 06:27:50;;;;;;;3.67;1.45;;;;;;;26.43;26.22;101681.06;4995848;28;20054;-77
2022/06/29 06:30:16;;;;;;;1.13;1.02;;;;;;;26.78;25.99;101680.38;4998553;28;20041;-76
2022/06/29 06:32:41;;;;;;;2.40;1.75;;;;;;;26.96;25.15;101677.72;4977900;28;21620;-79
2022/06/29 06:35:07;;;;;;;2.65;1.42;;;;;;;27.01;25.57;101678.09;4999259;28;20760;-79
2022/06/29 06:37:33;;;;;;;2.00;1.05;;;;;;;26.88;25.16;101673.09;4980691;28;20097;-78
2022/06/29 06:42:43;;;;;;;1.88;1.75;;;;;;;26.33;25.95;101669.50;4994747;28;20115;-77
2022/06/29 06:45:08;;;;;;;2.08;1.35;;;;;;;26.99;25.40;101664.00;4994496;28;20030;-78
2022/06/29 06:47:34;;;;;;;1.58;1.00;;;;;;;27.44;25.51;101671.19;4997432;28;20030;-77
2022/06/29 06:50:00;;;;;;;3.33;0.85;;;;;;;27.77;24.25;101670.66;5000825;28;20504;-80
2022/06/29 06:52:25;;;;;;;1.80;0.90;;;;;;;27.01;25.51;101672.75;5004290;28;20028;-78
2022/06/29 06:54:51;;;;;;;1.45;1.27;;;;;;;27.07;24.81;101669.47;5002814;28;20053;-79
2022/06/29 06:57:16;;;;;;;1.73;1.30;;;;;;;27.23;25.54;101678.72;5005598;28;20085;-78
2022/06/29 06:59:42;;;;;;;1.23;0.95;;;;;;;27.57;24.83;101667.28;5021473;28;20042;-82
2022/06/29 07:02:07;;;;;;;1.48;1.38;;;;;;;28.11;24.23;101668.84;5006685;28;20144;-79
2022/06/29 07:04:33;;;;;;;0.90;0.68;;;;;;;29.13;23.83;101669.88;5005204;28;20045;-77
2022/06/29 07:06:59;;;;;;;2.53;0.93;;;;;;;28.70;24.06;101666.38;5003284;28;20372;-76
2022/06/29 07:09:25;;;;;;;2.00;1.58;;;;;;;27.76;24.50;101669.78;4992152;28;20116;-78
2022/06/29 07:11:50;;;;;;;3.50;0.70;;;;;;;28.98;23.24;101673.34;5000781;28;20785;-78
2022/06/29 07:14:16;;;;;;;1.95;0.88;;;;;;;28.79;22.86;101666.38;5002386;28;20049;-76
2022/06/29 07:16:42;;;;;;;4.88;0.80;;;;;;;28.33;23.53;101672.03;5000377;28;20424;-81
2022/06/29 07:19:07;;;;;;;1.70;0.90;;;;;;;28.75;23.21;101664.03;5002758;28;20369;-78
2022/06/29 07:21:33;;;;;;;2.08;1.10;;;;;;;28.00;24.22;101668.28;5025175;28;20501;-80
2022/06/29 07:23:59;;;;;;;2.05;0.80;;;;;;;27.07;25.33;101666.78;4985909;28;20049;-78
2022/06/29 07:26:26;;;;;;;1.23;1.00;;;;;;;25.76;26.84;101670.31;5000197;28;20026;-79
2022/06/29 07:28:51;;;;;;;1.10;0.90;;;;;;;26.22;26.26;101666.03;5015251;28;21191;-79
2022/06/29 07:31:17;;;;;;;1.77;1.35;;;;;;;27.85;24.53;101658.13;5019410;28;20045;-79
2022/06/29 07:33:42;;;;;;;2.05;0.93;;;;;;;27.60;24.96;101658.91;4998508;28;20483;-79
2022/06/29 07:36:08;;;;;;;2.78;0.85;;;;;;;28.04;24.45;101653.53;4984307;28;20030;-76
2022/06/29 07:38:35;;;;;;;3.72;1.00;;;;;;;29.39;22.33;101647.31;4984073;28;20404;-77
2022/06/29 07:41:01;;;;;;;2.75;1.00;;;;;;;30.01;21.61;101657.56;4999600;28;22443;-79
2022/06/29 07:43:28;;;;;;;2.88;1.27;;;;;;;30.04;21.80;101653.69;4999572;28;20432;-78
2022/06/29 07:45:58;;;;;;;1.33;0.95;;;;;;;30.45;21.80;101651.75;4996831;28;20041;-78
2022/06/29 07:48:25;;;;;;;1.50;1.15;;;;;;;30.52;20.42;101651.88;5001949;28;20133;-78
2022/06/29 07:50:51;;;;;;;1.95;1.10;;;;;;;29.56;22.30;101643.63;4997996;28;20510;-79
2022/06/29 07:53:17;;;;;;;1.88;1.20;;;;;;;29.49;21.86;101645.31;4998801;28;20435;-78
2022/06/29 07:55:44;;;;;;;5.25;0.73;;;;;;;29.90;21.99;101634.50;4983909;28;20030;-78
2022/06/29 07:58:13;;;;;;;3.20;0.80;;;;;;;30.57;21.23;101633.34;4998219;28;20042;-79
2022/06/29 08:00:39;;;;;;;4.25;0.95;;;;;;;30.91;21.02;101637.50;4995187;28;20065;-76
2022/06/29 08:03:04;;;;;;;1.38;1.00;;;;;;;30.77;20.88;101634.56;4994945;28;20501;-79
2022/06/29 08:05:30;;;;;;;3.35;0.70;;;;;;;31.05;20.70;101634.09;4998040;28;20743;-76
2022/06/29 08:07:56;;;;;;;4.03;0.95;;;;;;;32.01;19.02;101631.75;4994837;28;20099;-77
2022/06/29 08:10:21;;;;;;;1.27;1.08;;;;;;;31.69;20.21;101633.72;4997190;28;20068;-76
2022/06/29 08:12:47;;;;;;;4.05;1.00;;;;;;;31.93;20.54;101632.69;4978827;28;20057;-78
2022/06/29 08:15:15;;;;;;;1.05;0.52;;;;;;;32.34;19.21;101640.31;4999564;28;20433;-78
2022/06/29 08:17:41;;;;;;;1.27;0.80;;;;;;;32.21;19.09;101632.03;4995642;28;20029;-78
2022/06/29 08:20:07;;;;;;;3.75;0.85;;;;;;;32.80;18.66;101626.50;4997051;28;20116;-77
2022/06/29 08:22:32;;;;;;;2.92;0.75;;;;;;;32.69;18.44;101627.00;4994487;28;20463;-78
2022/06/29 08:24:58;;;;;;;3.42;0.63;;;;;;;31.76;19.21;101626.59;4994729;28;20424;-78
2022/06/29 08:27:23;;;;;;;0.57;0.40;;;;;;;31.55;19.52;101618.34;4998074;28;20042;-76
2022/06/29 08:29:50;;;;;;;4.63;0.77;;;;;;;31.67;18.93;101616.03;5012561;28;20050;-79
2022/06/29 08:32:16;;;;;;;1.27;0.77;;;;;;;31.46;19.46;101617.56;4999731;28;20029;-78
2022/06/29 08:34:42;;;;;;;2.40;0.55;;;;;;;31.58;19.10;101623.38;4994364;28;20046;-78
2022/06/29 08:37:08;;;;;;;1.58;0.50;;;;;;;31.69;18.50;101606.72;4993447;28;20488;-78
2022/06/29 08:39:34;;;;;;;1.90;1.17;;;;;;;31.92;18.39;101614.75;4995994;28;20112;-77
2022/06/29 08:42:04;;;;;;;3.08;0.50;;;;;;;32.32;18.02;101614.47;4992569;28;20390;-79
2022/06/29 08:44:36;;;;;;;4.30;0.60;;;;;;;32.32;18.67;101615.31;4995652;28;20084;-78
2022/06/29 08:47:06;;;;;;;1.85;0.55;;;;;;;30.70;18.82;101620.13;4980716;28;20041;-77
2022/06/29 08:49:32;;;;;;;1.80;0.73;;;;;;;30.39;19.71;101610.13;4996486;28;20871;-75
2022/06/29 08:51:58;;;;;;;1.20;0.40;;;;;;;30.48;19.77;101615.47;5001533;28;20601;-77
2022/06/29 08:54:26;;;;;;;3.00;0.80;;;;;;;31.20;19.21;101615.22;4982001;28;20061;-79
2022/06/29 08:56:53;;;;;;;0.70;0.28;;;;;;;31.97;18.81;101608.81;4996712;28;20124;-76
2022/06/29 08:59:21;;;;;;;5.78;0.65;;;;;;;31.57;18.89;101606.34;4983188;28;20053;-77
2022/06/29 09:01:48;;;;;;;2.50;0.50;;;;;;;31.97;18.81;101601.53;4997355;28;20034;-75
2022/06/29 09:04:14;;;;;;;1.08;0.63;;;;;;;30.77;19.69;101617.53;4998083;28;20038;-79
2022/06/29 09:06:39;;;;;;;1.10;0.45;;;;;;;31.03;19.49;101602.91;5001788;28;20029;-78
2022/06/29 09:09:05;;;;;;;1.27;0.55;;;;;;;31.30;19.07;101610.44;4998948;28;20285;-78
2022/06/29 09:11:31;;;;;;;3.40;0.60;;;;;;;32.24;18.51;101604.59;5005222;28;20120;-79
2022/06/29 09:14:16;;;;;;;1.02;0.77;;;;;;;32.42;18.14;101596.94;5005628;28;20042;-78
2022/06/29 09:17:02;;;;;;;0.90;0.40;;;;;;;31.48;19.74;101595.81;5018754;28;20041;-77
2022/06/29 09:19:36;;;;;;;2.90;0.82;;;;;;;31.85;19.30;101591.34;5003618;28;20626;-76
2022/06/29 09:22:03;;;;;;;1.42;0.95;;;;;;;31.24;19.94;101594.13;5001166;28;20045;-77
2022/06/29 09:24:30;;;;;;;1.10;0.63;;;;;;;31.74;19.32;101589.94;5003024;28;20151;-76
2022/06/29 09:27:03;;;;;;;3.25;1.38;;;;;;;31.52;19.15;101591.72;5001398;28;20034;-76
2022/06/29 09:29:31;;;;;;;1.15;0.60;;;;;;;31.56;19.62;101583.06;5001252;28;20046;-79
2022/06/29 09:32:09;;;;;;;2.60;0.60;;;;;;;31.73;20.14;101585.56;4999255;28;22236;-78
2022/06/29 09:34:44;;;;;;;1.55;0.65;;;;;;;31.03;19.53;101587.53;4999922;28;20124;-79
2022/06/29 09:37:13;;;;;;;0.90;0.70;;;;;;;30.63;19.22;101592.16;5003150;28;20134;-80
2022/06/29 09:39:41;;;;;;;4.22;0.93;;;;;;;29.65;20.52;101587.94;4985348;28;20072;-79
2022/06/29 09:42:09;;;;;;;2.55;0.88;;;;;;;29.62;20.83;101587.41;5019655;28;20496;-76
2022/06/29 09:44:34;;;;;;;1.15;0.75;;;;;;;29.77;21.71;101577.63;5002655;28;20045;-77
2022/06/29 09:47:05;;;;;;;0.90;0.70;;;;;;;30.22;21.29;101586.97;5001570;28;20381;-79
2022/06/29 09:49:32;;;;;;;4.60;1.48;;;;;;;29.45;21.06;101587.41;4983223;28;20408;-78
2022/06/29 09:52:00;;;;;;;0.73;0.50;;;;;;;29.65;21.51;101587.09;4982761;28;20098;-75
2022/06/29 09:54:31;;;;;;;1.50;0.80;;;;;;;29.26;22.20;101579.69;4999340;28;20049;-76
2022/06/29 09:56:57;;;;;;;1.00;0.85;;;;;;;27.89;23.93;101588.81;5002239;28;20142;-79
2022/06/29 10:05:01;;;;;;;2.55;1.13;;;;;;;26.00;27.61;101583.31;5018106;28;20070;-79
2022/06/29 10:07:31;;;;;;;2.97;1.48;;;;;;;26.79;26.64;101576.63;4983220;28;20057;-78
2022/06/29 10:09:58;;;;;;;1.98;1.08;;;;;;;26.78;25.97;101577.59;4996687;28;20560;-78
2022/06/29 10:15:33;;;;;;;4.45;1.60;;;;;;;26.97;27.40;101565.91;5002621;28;20060;-77
2022/06/29 10:18:14;;;;;;;2.45;1.58;;;;;;;27.05;26.83;101566.81;5004034;28;20048;-79
2022/06/29 10:20:46;;;;;;;2.83;2.07;;;;;;;27.06;26.39;101559.63;4990114;28;20044;-77
2022/06/29 10:23:47;;;;;;;3.55;1.65;;;;;;;26.60;27.24;101567.72;5002532;28;20088;-78
2022/06/29 10:26:31;;;;;;;8.68;4.65;;;;;;;26.39;26.45;101573.31;5002722;28;20400;-78
2022/06/29 10:29:17;;;;;;;2.00;1.00;;;;;;;25.92;26.34;101559.09;4984110;28;20041;-79
2022/06/29 10:31:53;;;;;;;1.67;1.00;;;;;;;26.13;27.31;101567.78;4985179;28;20591;-76
2022/06/29 10:34:31;;;;;;;1.05;0.95;;;;;;;26.55;25.86;101561.09;4999047;28;20038;-75
2022/06/29 10:37:03;;;;;;;3.58;1.30;;;;;;;26.53;27.64;101558.53;4999078;28;20038;-79
2022/06/29 10:39:34;;;;;;;2.40;2.20;;;;;;;26.60;26.80;101559.69;5001245;28;20080;-80
2022/06/29 10:45:03;;;;;;;3.78;1.58;;;;;;;26.71;26.65;101561.28;4999047;28;20045;-78
2022/06/29 10:47:30;;;;;;;3.72;1.70;;;;;;;26.28;27.15;101552.06;4984454;28;20045;-78
2022/06/29 10:50:14;;;;;;;3.78;2.03;;;;;;;26.22;27.24;101558.88;4997757;28;20634;-77
2022/06/29 10:52:41;;;;;;;3.45;1.52;;;;;;;26.82;25.26;101542.28;4995846;28;20038;-77
2022/06/29 10:55:07;;;;;;;2.13;0.80;;;;;;;27.66;25.50;101550.91;4983110;28;20022;-79
2022/06/29 10:57:37;;;;;;;3.47;2.13;;;;;;;26.70;26.37;101547.03;5013179;28;20459;-79
2022/06/29 11:00:08;;;;;;;2.97;1.38;;;;;;;26.60;26.58;101548.09;4999160;28;20481;-79
2022/06/29 11:02:34;;;;;;;;;;;;;;;27.04;24.95;101542.81;4999365;28;20122;-74
2022/06/29 11:05:00;;;;;;;4.18;2.78;;;;;;;27.07;25.20;101539.81;4999974;28;20413;-76
2022/06/29 11:12:56;;;;;;;1.42;1.23;;;;;;;27.59;24.91;101539.09;4994551;28;20519;-77
2022/06/29 11:15:42;;;;;;;2.03;1.23;;;;;;;27.37;25.09;101535.91;5005345;28;20022;-80
2022/06/29 11:18:16;;;;;;;1.75;0.90;;;;;;;27.27;26.53;101532.47;4997393;28;20179;-79
2022/06/29 11:20:44;;;;;;;3.72;1.80;;;;;;;27.02;26.18;101521.50;5004085;28;20033;-76
2022/06/29 11:23:14;;;;;;;2.08;1.02;;;;;;;27.38;25.09;101515.28;4980955;28;20590;-79
2022/06/29 11:25:43;;;;;;;2.38;1.35;;;;;;;27.79;24.70;101508.34;5003643;28;20033;-77
2022/06/29 11:28:09;;;;;;;2.85;1.05;;;;;;;27.79;24.21;101510.19;4990949;28;20049;-77
2022/06/29 11:30:35;;;;;;;2.47;1.35;;;;;;;28.45;23.14;101513.97;5014512;28;20026;-77
2022/06/29 11:33:10;;;;;;;2.58;1.00;;;;;;;28.06;23.16;101507.28;4980307;28;20098;-79
2022/06/29 11:35:38;;;;;;;3.17;1.60;;;;;;;27.64;23.60;101502.72;4997744;28;20090;-77
2022/06/29 11:38:07;;;;;;;2.28;1.30;;;;;;;27.16;24.10;101508.56;4986864;28;20139;-76
2022/06/29 11:40:41;;;;;;;2.88;1.30;;;;;;;27.22;23.96;101510.63;4986619;28;20029;-76
2022/06/29 11:43:15;;;;;;;2.75;1.50;;;;;;;27.27;24.47;101505.63;4980402;28;20038;-78
2022/06/29 11:45:48;;;;;;;6.30;4.05;;;;;;;27.14;23.75;101497.16;4988161;28;20076;-75
2022/06/29 11:48:18;;;;;;;6.35;1.45;;;;;;;27.13;24.87;101500.84;4985471;28;20180;-78
2022/06/29 11:50:54;;;;;;;2.65;1.27;;;;;;;27.97;23.86;101504.75;4986830;28;20042;-78
2022/06/29 11:53:48;;;;;;;12.45;2.25;;;;;;;28.43;23.40;101484.56;4985891;28;20060;-77
2022/06/29 11:56:23;;;;;;;3.35;1.70;;;;;;;27.96;23.34;101492.28;4970797;28;20756;-78
2022/06/29 11:58:52;;;;;;;2.42;1.30;;;;;;;28.13;23.70;101484.16;4982317;28;20928;-76
2022/06/29 12:01:20;;;;;;;2.45;1.52;;;;;;;28.82;22.56;101483.16;5001000;28;20339;-76
2022/06/29 12:03:53;;;;;;;2.40;1.90;;;;;;;29.18;22.11;101470.19;4983884;28;20133;-78
2022/06/29 12:06:24;;;;;;;5.85;1.60;;;;;;;28.79;22.03;101478.06;4988447;28;20031;-79
2022/06/29 12:08:54;;;;;;;3.45;1.70;;;;;;;28.70;22.42;101470.03;4990983;28;20091;-73
2022/06/29 12:11:21;;;;;;;5.72;1.80;;;;;;;29.42;21.77;101463.09;4971080;28;20172;-78
2022/06/29 12:13:47;;;;;;;1.40;1.10;;;;;;;29.45;21.67;101460.03;4984892;28;20585;-77
2022/06/29 12:16:14;;;;;;;3.35;1.52;;;;;;;28.91;22.77;101458.75;4983353;28;20041;-76
2022/06/29 12:18:40;;;;;;;2.53;2.10;;;;;;;29.41;21.72;101456.84;4999037;28;20038;-77
2022/06/29 12:21:05;;;;;;;1.85;1.63;;;;;;;29.86;22.92;101449.13;4987066;28;20056;-78
2022/06/29 12:23:31;;;;;;;3.85;1.67;;;;;;;29.98;21.04;101445.03;4985822;28;20051;-78
2022/06/29 12:26:00;;;;;;;3.58;2.05;;;;;;;29.38;23.40;101446.44;4990314;28;20038;-78
2022/06/29 12:28:27;;;;;;;2.20;2.00;;;;;;;29.40;21.75;101451.66;4992543;28;22237;-79
2022/06/29 12:30:53;;;;;;;1.60;1.48;;;;;;;29.01;21.50;101444.28;4988289;28;20030;-78
2022/06/29 12:33:19;;;;;;;2.83;2.00;;;;;;;29.57;21.17;101456.81;4989993;28;20507;-80
2022/06/29 12:35:46;;;;;;;2.70;1.85;;;;;;;29.44;20.91;101444.88;4973447;28;20063;-76
2022/06/29 12:38:12;;;;;;;4.45;2.28;;;;;;;28.53;21.55;101441.41;4985147;28;20797;-77
2022/06/29 12:40:38;;;;;;;1.88;1.65;;;;;;;29.12;21.83;101441.25;4988598;28;20026;-76
2022/06/29 12:43:04;;;;;;;2.55;2.35;;;;;;;28.72;21.73;101435.75;4973986;28;20877;-78
2022/06/29 12:45:29;;;;;;;5.57;1.92;;;;;;;28.60;22.60;101433.50;4991860;28;20051;-78